首页
METAR-TAF:

METAR-TAF

机场 :

温尼伯詹姆斯·阿姆斯特朗·理查森国际机场

温尼伯, 曼尼托巴, 加拿大

纬度: 49-54N, 经度: 097-14W, 海拔: 239米

当前天气观测

该预报发布于1小时和2分钟前的10:00 UTC
风速5节,风向
温度 -6°C
湿度 93%
气压 1007 hPa
能見度: 24.1公里
散云层高于22000英尺

METAR: CYWG 151000Z 36005KT 15SM SCT220 M06/M07 A2973 RMK CI4 SLP084

时间: 05:02 (11:02 UTC)

预报

该预报发布于5小时和24分钟前的05:38 UTC
预报有效从15日的 06点(UTC)到 16日的 06点(UTC)
风速5节,风向西南
能見度: 10公里
多云层高于11000英尺
阴天层高于22000英尺
从 15日的 0900点(UTC)
风速8节,风向西北
能見度: 10公里
少量云层高于800英尺
散云层高于1500英尺
多云层高于22000英尺
短暂存在
从 15日的 09点(UTC)到 15日的 12点(UTC)
能見度: 6.4公里
散云层高于800英尺
多云层高于1500英尺
轻雾
从 15日的 1800点(UTC)
风速12节,风向北转西北,有时为22节阵风
能見度: 10公里
多云层高于2000英尺
阴天层高于22000英尺

TAF: CYWG 150538Z 1506/1606 23005KT P6SM BKN110 OVC220 FM150900 32008KT P6SM FEW008 SCT015 BKN220 TEMPO 1509/1512 4SM BR SCT008 BKN015 FM151800 34012G22KT P6SM BKN020 OVC220 RMK NXT FCST BY 151200Z

超过4000个机场的气象观测和天气预报(METAR&TAF报告)。

可查询的气象台以黄色和红色小点在地图上表示。

将鼠标移到小点上方,可查看气象台名称。

然后点击查看天气观测和预报。

如需切换地图:点击带黑十字的绿色按钮放大地图;点击带横线的绿色按钮缩小地图;或者点击绿色箭头查看邻近地区的地图。


METAR-TAF: